createdAt,value
2017-07-16T00:00:29.813Z,14.45
2017-07-16T00:01:45.242Z,14.39
2017-07-16T00:03:00.964Z,14.54
2017-07-16T00:04:16.389Z,14.48
2017-07-16T00:05:31.973Z,14.48
2017-07-16T00:06:47.421Z,14.36
2017-07-16T00:08:03.173Z,14.4
2017-07-16T00:09:18.773Z,14.45
2017-07-16T00:10:34.181Z,14.44
2017-07-16T00:11:49.631Z,14.34
2017-07-16T00:13:05.462Z,14.44
2017-07-16T00:14:20.873Z,14.39
2017-07-16T00:15:36.319Z,14.31
2017-07-16T00:16:51.934Z,14.26
2017-07-16T00:18:07.595Z,14.24
2017-07-16T00:19:23.040Z,14.25
2017-07-16T00:20:38.705Z,14.18
2017-07-16T00:21:54.153Z,14.22
2017-07-16T00:23:09.845Z,14.16
2017-07-16T00:24:25.300Z,14.21
2017-07-16T00:25:39.429Z,14.19
2017-07-16T00:26:55.029Z,14.18
2017-07-16T00:28:11.284Z,14.16
2017-07-16T00:29:26.946Z,14.16
2017-07-16T00:30:42.366Z,14.13
2017-07-16T00:31:57.792Z,14.09
2017-07-16T00:33:13.464Z,14.11
2017-07-16T00:34:28.904Z,14.11
2017-07-16T00:35:44.343Z,14.02
2017-07-16T00:36:59.789Z,14
2017-07-16T00:38:15.472Z,14
2017-07-16T00:39:30.927Z,14.06
2017-07-16T00:40:45.019Z,13.95
2017-07-16T00:42:00.840Z,14.06
2017-07-16T00:43:15.249Z,14.02
2017-07-16T00:44:31.116Z,13.99
2017-07-16T00:45:46.536Z,13.89
2017-07-16T00:47:01.952Z,13.94
2017-07-16T00:48:18.041Z,13.91
2017-07-16T00:49:33.474Z,13.95
2017-07-16T00:50:48.912Z,13.88
2017-07-16T00:52:04.551Z,13.89
2017-07-16T00:53:20.208Z,13.89
2017-07-16T00:54:35.661Z,13.99
2017-07-16T00:55:51.119Z,14.04
2017-07-16T00:57:06.550Z,13.99
2017-07-16T00:58:22.240Z,14.02
2017-07-16T00:59:37.944Z,13.99
2017-07-16T01:00:53.592Z,14.03
2017-07-16T01:02:08.971Z,13.95
2017-07-16T01:03:24.837Z,13.96
2017-07-16T01:04:40.382Z,13.94
2017-07-16T01:05:55.779Z,13.99
2017-07-16T01:07:11.408Z,13.89
2017-07-16T01:08:27.079Z,13.95
2017-07-16T01:09:42.507Z,13.89
2017-07-16T01:10:57.935Z,13.94
2017-07-16T01:12:13.434Z,13.91
2017-07-16T01:13:29.285Z,13.91
2017-07-16T01:14:44.709Z,13.85
2017-07-16T01:15:58.807Z,13.82
2017-07-16T01:17:14.289Z,13.82
2017-07-16T01:18:29.931Z,13.81
2017-07-16T01:19:45.011Z,13.84
2017-07-16T01:21:00.731Z,13.88
2017-07-16T01:22:15.076Z,13.82
2017-07-16T01:23:30.952Z,13.81
2017-07-16T01:24:46.417Z,13.81
2017-07-16T01:26:01.703Z,13.79
2017-07-16T01:27:17.336Z,13.7
2017-07-16T01:28:33.018Z,13.73
2017-07-16T01:29:48.392Z,13.7
2017-07-16T01:31:03.814Z,13.7
2017-07-16T01:32:19.202Z,13.76
2017-07-16T01:33:34.958Z,13.74
2017-07-16T01:34:50.577Z,13.67
2017-07-16T01:36:04.568Z,13.67
2017-07-16T01:37:19.975Z,13.71
2017-07-16T01:38:35.682Z,13.73
2017-07-16T01:39:51.331Z,13.64
2017-07-16T01:41:05.646Z,13.59
2017-07-16T01:42:21.097Z,13.59
2017-07-16T01:43:36.761Z,13.59
2017-07-16T01:44:50.839Z,13.61
2017-07-16T01:46:05.908Z,13.58
2017-07-16T01:47:21.332Z,13.64
2017-07-16T01:48:37.104Z,13.63
2017-07-16T01:49:52.606Z,13.55
2017-07-16T01:51:08.038Z,13.66
2017-07-16T01:52:23.681Z,13.51
2017-07-16T01:53:39.525Z,13.64
2017-07-16T01:54:55.011Z,13.64
2017-07-16T01:56:08.746Z,13.54
2017-07-16T01:57:24.175Z,13.55
2017-07-16T01:58:39.849Z,13.54
2017-07-16T01:59:55.257Z,13.55
2017-07-16T02:01:09.315Z,13.56
2017-07-16T02:02:24.725Z,13.48
2017-07-16T02:03:40.022Z,13.51
2017-07-16T02:04:55.638Z,13.52
2017-07-16T02:06:11.122Z,13.45
2017-07-16T02:07:26.480Z,13.48
2017-07-16T02:08:40.836Z,13.52
2017-07-16T02:09:56.332Z,13.49
2017-07-16T02:11:10.447Z,13.58
2017-07-16T02:12:24.615Z,13.52
2017-07-16T02:13:38.790Z,13.51
2017-07-16T02:14:54.444Z,13.52
2017-07-16T02:16:09.554Z,13.44
2017-07-16T02:17:23.733Z,13.46
2017-07-16T02:18:39.174Z,13.54
2017-07-16T02:19:54.846Z,13.51
2017-07-16T02:21:10.272Z,13.4
2017-07-16T02:22:25.688Z,13.48
2017-07-16T02:23:41.109Z,13.48
2017-07-16T02:24:56.759Z,13.49
2017-07-16T02:26:12.182Z,13.48
2017-07-16T02:27:27.574Z,13.54
2017-07-16T02:28:43.019Z,13.61
2017-07-16T02:29:58.711Z,13.52
2017-07-16T02:31:14.156Z,13.48
2017-07-16T02:32:29.612Z,13.51
2017-07-16T02:33:45.029Z,13.49
2017-07-16T02:35:00.698Z,13.51
2017-07-16T02:36:16.139Z,13.54
2017-07-16T02:37:30.258Z,13.51
2017-07-16T02:38:44.206Z,13.48
2017-07-16T02:39:59.856Z,13.48
2017-07-16T02:41:15.302Z,13.45
2017-07-16T02:42:30.393Z,13.46
2017-07-16T02:43:44.538Z,13.46
2017-07-16T02:45:00.324Z,13.4
2017-07-16T02:46:15.476Z,13.51
2017-07-16T02:47:30.888Z,13.46
2017-07-16T02:48:46.326Z,13.52
2017-07-16T02:50:02.327Z,13.49
2017-07-16T02:51:17.741Z,13.55
2017-07-16T02:52:33.151Z,13.59
2017-07-16T02:53:48.847Z,13.56
2017-07-16T02:55:04.556Z,13.45
2017-07-16T02:56:19.606Z,13.58
2017-07-16T02:57:35.066Z,13.56
2017-07-16T02:58:50.491Z,13.48
2017-07-16T03:00:06.159Z,13.46
2017-07-16T03:01:21.674Z,13.46
2017-07-16T03:02:37.121Z,13.45
2017-07-16T03:03:52.552Z,13.46
2017-07-16T03:05:08.431Z,13.56
2017-07-16T03:06:24.209Z,13.54
2017-07-16T03:07:38.335Z,13.54
2017-07-16T03:08:53.735Z,13.49
2017-07-16T03:10:08.089Z,13.49
2017-07-16T03:11:23.581Z,13.48
2017-07-16T03:12:38.998Z,13.46
2017-07-16T03:13:54.426Z,13.56
2017-07-16T03:15:10.069Z,13.58
2017-07-16T03:16:25.511Z,13.52
2017-07-16T03:17:39.635Z,13.45
2017-07-16T03:18:55.082Z,13.54
2017-07-16T03:20:10.775Z,13.59
2017-07-16T03:21:26.179Z,13.56
2017-07-16T03:22:41.561Z,13.61
2017-07-16T03:23:55.666Z,13.59
2017-07-16T03:25:11.337Z,13.63
2017-07-16T03:26:26.753Z,13.67
2017-07-16T03:27:42.104Z,13.61
2017-07-16T03:28:57.534Z,13.55
2017-07-16T03:30:11.725Z,13.54
2017-07-16T03:31:27.123Z,13.54
2017-07-16T03:32:42.541Z,13.59
2017-07-16T03:33:58.421Z,13.56
2017-07-16T03:35:14.107Z,13.61
2017-07-16T03:36:29.514Z,13.63
2017-07-16T03:37:44.952Z,13.63
2017-07-16T03:39:00.402Z,13.56
2017-07-16T03:40:16.074Z,13.59
2017-07-16T03:41:32.024Z,13.54
2017-07-16T03:42:47.422Z,13.61
2017-07-16T03:44:01.542Z,13.52
2017-07-16T03:45:17.461Z,13.54
2017-07-16T03:46:32.848Z,13.61
2017-07-16T03:47:48.344Z,13.61
2017-07-16T03:49:03.729Z,13.61
2017-07-16T03:50:19.410Z,13.56
2017-07-16T03:51:34.817Z,13.54
2017-07-16T03:52:50.220Z,13.56
2017-07-16T03:54:05.719Z,13.64
2017-07-16T03:55:21.481Z,13.63
2017-07-16T03:56:36.902Z,13.56
2017-07-16T03:57:51.961Z,13.63
2017-07-16T03:59:07.358Z,13.74
2017-07-16T04:00:23.014Z,13.74
2017-07-16T04:01:38.594Z,13.66
2017-07-16T04:02:54.418Z,13.69
2017-07-16T04:04:09.859Z,13.76
2017-07-16T04:05:25.509Z,13.64
2017-07-16T04:06:40.909Z,13.73
2017-07-16T04:07:56.307Z,13.69
2017-07-16T04:09:10.436Z,13.77
2017-07-16T04:10:26.134Z,13.76
2017-07-16T04:11:41.568Z,13.85
2017-07-16T04:12:56.970Z,13.82
2017-07-16T04:14:12.367Z,13.82
2017-07-16T04:15:28.066Z,13.91
2017-07-16T04:16:43.468Z,13.94
2017-07-16T04:17:59.094Z,13.89
2017-07-16T04:19:14.499Z,13.99
2017-07-16T04:20:30.164Z,14.03
2017-07-16T04:21:45.719Z,14.03
2017-07-16T04:23:01.142Z,13.99
2017-07-16T04:24:15.264Z,13.94
2017-07-16T04:25:30.928Z,13.99
2017-07-16T04:26:46.509Z,13.95
2017-07-16T04:28:02.171Z,14.02
2017-07-16T04:29:17.675Z,13.96
2017-07-16T04:30:33.337Z,14.1
2017-07-16T04:33:17.723Z,14.09
2017-07-16T04:34:31.819Z,14.22
2017-07-16T04:35:47.508Z,14.21
2017-07-16T04:37:02.990Z,14.28
2017-07-16T04:38:18.442Z,14.21
2017-07-16T04:39:33.859Z,14.29
2017-07-16T04:40:49.588Z,14.24
2017-07-16T04:42:05.199Z,14.26
2017-07-16T04:43:19.320Z,14.29
2017-07-16T04:44:34.716Z,14.34
2017-07-16T04:45:50.693Z,14.34
2017-07-16T04:47:06.250Z,14.39
2017-07-16T04:48:20.597Z,14.39
2017-07-16T04:49:36.025Z,14.5
2017-07-16T04:50:51.753Z,14.47
2017-07-16T04:52:07.158Z,14.56
2017-07-16T04:53:22.528Z,14.58
2017-07-16T04:54:37.971Z,14.62
2017-07-16T04:55:53.648Z,14.72
2017-07-16T04:57:09.123Z,14.69
2017-07-16T04:58:23.341Z,14.72
2017-07-16T04:59:39.171Z,14.72
2017-07-16T05:00:54.872Z,14.7
2017-07-16T05:02:10.510Z,14.75
2017-07-16T05:03:24.503Z,14.83
2017-07-16T05:04:39.948Z,14.84
2017-07-16T05:05:55.590Z,14.88
2017-07-16T05:07:11.031Z,14.95
2017-07-16T05:08:26.496Z,14.93
2017-07-16T05:09:40.461Z,15
2017-07-16T05:10:56.210Z,14.96
2017-07-16T05:12:11.683Z,14.96
2017-07-16T05:13:27.116Z,15.08
2017-07-16T05:14:41.255Z,15.05
2017-07-16T05:15:56.928Z,15.03
2017-07-16T05:17:12.321Z,15.13
2017-07-16T05:18:27.772Z,15.13
2017-07-16T05:19:43.218Z,15.03
2017-07-16T05:20:58.992Z,15.08
2017-07-16T05:22:14.408Z,15.06
2017-07-16T05:23:29.867Z,15.11
2017-07-16T05:24:45.238Z,15.03
2017-07-16T05:26:00.946Z,15.06
2017-07-16T05:27:16.494Z,14.93
2017-07-16T05:28:31.945Z,15
2017-07-16T05:29:47.374Z,14.87
2017-07-16T05:31:03.064Z,14.88
2017-07-16T05:32:18.508Z,14.78
2017-07-16T05:33:33.971Z,14.88
2017-07-16T05:34:49.626Z,14.85
2017-07-16T05:36:03.921Z,14.99
2017-07-16T05:37:19.599Z,14.96
2017-07-16T05:38:35.080Z,15.09
2017-07-16T05:39:49.077Z,15.11
2017-07-16T05:41:04.718Z,15.13
2017-07-16T05:42:18.861Z,15.2
2017-07-16T05:43:34.304Z,15.25
2017-07-16T05:44:49.730Z,15.25
2017-07-16T05:46:05.394Z,15.43
2017-07-16T05:47:19.563Z,15.3
2017-07-16T05:48:35.072Z,15.32
2017-07-16T05:49:50.532Z,15.29
2017-07-16T05:51:06.203Z,15.29
2017-07-16T05:52:21.509Z,15.3
2017-07-16T05:53:50.534Z,15.4
2017-07-16T05:55:06.143Z,15.39
2017-07-16T05:56:20.540Z,15.46
2017-07-16T05:57:36.030Z,15.53
2017-07-16T05:58:51.457Z,15.53
2017-07-16T06:00:05.610Z,15.7
2017-07-16T06:01:21.250Z,15.75
2017-07-16T06:02:36.948Z,15.84
2017-07-16T06:03:52.587Z,15.84
2017-07-16T06:05:08.027Z,15.82
2017-07-16T06:06:23.747Z,15.87
2017-07-16T06:07:39.170Z,16.01
2017-07-16T06:08:54.767Z,15.99
2017-07-16T06:10:10.215Z,16.09
2017-07-16T06:11:26.010Z,16.14
2017-07-16T06:12:41.484Z,16.16
2017-07-16T06:13:56.920Z,16.25
2017-07-16T06:15:12.018Z,16.28
2017-07-16T06:16:27.725Z,16.36
2017-07-16T06:17:41.817Z,16.43
2017-07-16T06:18:57.288Z,16.31
2017-07-16T06:20:12.740Z,16.36
2017-07-16T06:21:28.444Z,16.36
2017-07-16T06:22:43.913Z,16.39
2017-07-16T06:23:57.898Z,16.38
2017-07-16T06:25:13.449Z,16.31
2017-07-16T06:26:29.116Z,16.42
2017-07-16T06:27:44.661Z,16.35
2017-07-16T06:29:00.463Z,16.42
2017-07-16T06:30:15.967Z,16.54
2017-07-16T06:31:31.655Z,16.56
2017-07-16T06:32:47.131Z,16.62
2017-07-16T06:34:02.570Z,16.68
2017-07-16T06:35:18.007Z,16.72
2017-07-16T06:36:33.808Z,16.84
2017-07-16T06:37:49.275Z,16.91
2017-07-16T06:39:04.736Z,16.99
2017-07-16T06:40:20.237Z,16.99
2017-07-16T06:41:34.522Z,16.99
2017-07-16T06:42:49.973Z,17.06
2017-07-16T06:44:05.410Z,17.2
2017-07-16T06:45:20.833Z,17.23
2017-07-16T06:46:36.630Z,17.43
2017-07-16T06:47:51.678Z,17.47
2017-07-16T06:49:07.480Z,17.64
2017-07-16T06:50:22.958Z,17.72
2017-07-16T06:51:38.674Z,17.83
2017-07-16T06:52:54.186Z,17.92
2017-07-16T06:54:09.571Z,17.95
2017-07-16T06:55:25.010Z,17.97
2017-07-16T06:56:39.381Z,17.95
2017-07-16T06:57:54.846Z,17.94
2017-07-16T06:59:10.585Z,18.01
2017-07-16T07:00:26.251Z,18.04
2017-07-16T07:01:41.954Z,18.05
2017-07-16T07:02:57.364Z,18.15
2017-07-16T07:04:13.060Z,18.16
2017-07-16T07:05:28.548Z,18.2
2017-07-16T07:06:44.262Z,18.32
2017-07-16T07:07:59.773Z,18.32
2017-07-16T07:09:14.818Z,18.4
2017-07-16T07:10:30.313Z,18.31
2017-07-16T07:11:46.023Z,18.42
2017-07-16T07:13:01.476Z,18.42
2017-07-16T07:14:15.670Z,18.41
2017-07-16T07:15:31.132Z,18.46
2017-07-16T07:16:47.159Z,18.6
2017-07-16T07:18:01.399Z,18.65
2017-07-16T07:19:15.235Z,18.79
2017-07-16T07:20:30.592Z,18.87
2017-07-16T07:21:45.050Z,18.95
2017-07-16T07:22:59.139Z,18.95
2017-07-16T07:24:14.603Z,19.09
2017-07-16T07:25:30.063Z,19.18
2017-07-16T07:26:44.427Z,19.18
2017-07-16T07:28:00.126Z,19.28
2017-07-16T07:29:15.550Z,19.27
2017-07-16T07:30:31.008Z,19.25
2017-07-16T07:31:46.479Z,19.42
2017-07-16T07:33:02.215Z,19.56
2017-07-16T07:34:17.655Z,19.55
2017-07-16T07:35:33.156Z,19.58
2017-07-16T07:36:48.654Z,19.53
2017-07-16T07:38:04.444Z,19.6
2017-07-16T07:39:19.888Z,19.53
2017-07-16T07:40:35.380Z,19.55
2017-07-16T07:41:50.846Z,19.46
2017-07-16T07:43:06.874Z,19.58
2017-07-16T07:44:22.286Z,19.56
2017-07-16T07:45:37.375Z,19.67
2017-07-16T07:46:53.313Z,19.63
2017-07-16T07:48:09.002Z,19.58
2017-07-16T07:49:24.453Z,19.68
2017-07-16T07:50:39.881Z,19.73
2017-07-16T07:51:55.318Z,19.79
2017-07-16T07:53:10.683Z,19.89
2017-07-16T07:54:26.210Z,20.03
2017-07-16T07:55:41.685Z,20
2017-07-16T07:56:57.350Z,20.12
2017-07-16T07:58:13.146Z,20.19
2017-07-16T07:59:28.648Z,20.28
2017-07-16T08:00:42.661Z,20.24
2017-07-16T08:01:58.222Z,20.23
2017-07-16T08:03:13.956Z,20.35
2017-07-16T08:04:29.410Z,20.48
2017-07-16T08:05:45.054Z,20.56
2017-07-16T08:07:00.561Z,20.76
2017-07-16T08:08:16.229Z,20.81
2017-07-16T08:09:31.662Z,20.88
2017-07-16T08:10:47.061Z,20.98
2017-07-16T08:12:02.525Z,21.09
2017-07-16T08:13:16.804Z,21.23
2017-07-16T08:14:32.261Z,21.18
2017-07-16T08:15:47.744Z,21.35
2017-07-16T08:17:01.755Z,21.6
2017-07-16T08:18:17.628Z,21.65
2017-07-16T08:19:33.281Z,21.76
2017-07-16T08:20:48.804Z,21.87
2017-07-16T08:22:04.654Z,21.97
2017-07-16T08:23:20.334Z,22.01
2017-07-16T08:24:35.816Z,22.2
2017-07-16T08:25:51.232Z,22.27
2017-07-16T08:27:07.030Z,22.39
2017-07-16T08:28:22.779Z,22.4
2017-07-16T08:29:38.250Z,22.43
2017-07-16T08:30:53.896Z,22.5
2017-07-16T08:32:09.600Z,22.67
2017-07-16T08:33:25.367Z,22.7
2017-07-16T08:34:40.809Z,22.73
2017-07-16T08:35:56.261Z,22.68
2017-07-16T08:37:11.873Z,22.64
2017-07-16T08:38:27.586Z,22.63
2017-07-16T08:39:43.136Z,22.6
2017-07-16T08:41:29.462Z,22.43
2017-07-16T08:42:45.169Z,22.35
2017-07-16T08:43:59.312Z,22.21
2017-07-16T08:45:14.711Z,22.11
2017-07-16T08:46:30.146Z,21.93
2017-07-16T08:47:45.916Z,21.9
2017-07-16T08:49:01.371Z,21.79
2017-07-16T08:50:16.833Z,21.66
2017-07-16T08:51:32.318Z,21.6
2017-07-16T08:52:46.711Z,21.43
2017-07-16T08:54:02.165Z,21.38
2017-07-16T08:55:16.374Z,21.33
2017-07-16T08:56:31.875Z,21.25
2017-07-16T08:58:18.407Z,21.15
2017-07-16T08:59:34.251Z,21.15
2017-07-16T09:00:49.709Z,21.08
2017-07-16T09:02:05.332Z,21.08
2017-07-16T09:03:20.730Z,21.09
2017-07-16T09:04:36.173Z,21.01
2017-07-16T09:05:50.329Z,21.04
2017-07-16T09:07:04.517Z,21
2017-07-16T09:08:20.425Z,20.96
2017-07-16T09:09:35.541Z,20.97
2017-07-16T09:10:50.972Z,20.91
2017-07-16T09:12:06.454Z,20.81
2017-07-16T09:13:22.330Z,20.81
2017-07-16T09:14:37.471Z,20.96
2017-07-16T09:15:52.974Z,21.01
2017-07-16T09:17:08.459Z,21.04
2017-07-16T09:18:24.149Z,21.09
2017-07-16T09:19:39.619Z,21.18
2017-07-16T09:20:55.106Z,21.23
2017-07-16T09:22:10.152Z,21.23
2017-07-16T09:23:26.081Z,21.38
2017-07-16T09:24:41.147Z,21.43
2017-07-16T09:25:55.563Z,21.64
2017-07-16T09:27:09.720Z,21.72
2017-07-16T09:28:25.419Z,21.9
2017-07-16T09:29:40.921Z,21.93
2017-07-16T09:30:56.304Z,21.97
2017-07-16T09:32:10.329Z,22.02
2017-07-16T09:33:26.059Z,22.05
2017-07-16T09:34:40.182Z,22.09
2017-07-16T09:35:55.852Z,22.05
2017-07-16T09:37:11.286Z,22.2
2017-07-16T09:38:27.051Z,22.23
2017-07-16T09:39:42.606Z,22.23
2017-07-16T09:40:58.101Z,22.21
2017-07-16T09:42:13.599Z,22.26
2017-07-16T09:43:29.339Z,22.24
2017-07-16T09:44:44.834Z,22.2
2017-07-16T09:46:00.331Z,22.23
2017-07-16T09:47:15.813Z,22.27
2017-07-16T09:48:31.521Z,22.21
2017-07-16T09:49:46.961Z,22.26
2017-07-16T09:51:02.674Z,22.4
2017-07-16T09:52:18.159Z,22.48
2017-07-16T09:53:33.840Z,22.61
2017-07-16T09:54:49.272Z,22.65
2017-07-16T09:56:04.832Z,22.68
2017-07-16T09:57:19.131Z,22.68
2017-07-16T09:58:34.845Z,22.78
2017-07-16T09:59:49.131Z,22.75
2017-07-16T10:01:04.608Z,22.87
2017-07-16T10:02:20.067Z,22.89
2017-07-16T10:03:35.977Z,23.01
2017-07-16T10:04:51.449Z,23.01
2017-07-16T10:06:06.897Z,23.18
2017-07-16T10:07:22.386Z,23.17
2017-07-16T10:08:38.280Z,23.2
2017-07-16T10:09:53.699Z,23.14
2017-07-16T10:11:09.382Z,23.02
2017-07-16T10:12:24.820Z,23.01
2017-07-16T10:13:39.223Z,23.01
2017-07-16T10:14:54.738Z,23.01
2017-07-16T10:16:10.234Z,22.89
2017-07-16T10:17:25.934Z,22.93
2017-07-16T10:18:41.616Z,22.99
2017-07-16T10:19:57.100Z,22.79
2017-07-16T10:21:12.688Z,22.78
2017-07-16T10:22:28.193Z,22.61
2017-07-16T10:23:43.851Z,22.61
2017-07-16T10:24:57.882Z,22.5
2017-07-16T10:26:12.089Z,22.43
2017-07-16T10:27:27.212Z,22.35
2017-07-16T10:28:42.678Z,22.21
2017-07-16T10:29:58.385Z,22.28
2017-07-16T10:31:13.961Z,22.24
2017-07-16T10:32:29.997Z,22.15
2017-07-16T10:33:45.473Z,22.08
2017-07-16T10:35:01.171Z,22.09
2017-07-16T10:36:16.710Z,21.97
2017-07-16T10:37:32.228Z,21.94
2017-07-16T10:38:47.708Z,21.84
2017-07-16T10:40:03.441Z,21.9
2017-07-16T10:41:32.740Z,21.97
2017-07-16T10:42:48.198Z,21.97
2017-07-16T10:44:03.928Z,21.93
2017-07-16T10:45:19.422Z,21.93
2017-07-16T10:46:35.131Z,21.91
2017-07-16T10:47:50.608Z,22.06
2017-07-16T10:49:06.341Z,22.01
2017-07-16T10:50:21.899Z,22.05
2017-07-16T10:51:37.341Z,21.96
2017-07-16T10:52:52.811Z,21.97
2017-07-16T10:54:08.555Z,21.87
2017-07-16T10:55:22.766Z,21.84
2017-07-16T10:56:38.213Z,21.86
2017-07-16T10:57:53.668Z,21.79
2017-07-16T10:59:08.067Z,21.75
2017-07-16T11:00:23.557Z,21.72
2017-07-16T11:01:39.015Z,21.76
2017-07-16T11:02:54.737Z,21.78
2017-07-16T11:04:10.493Z,21.73
2017-07-16T11:05:26.060Z,21.73
2017-07-16T11:06:41.556Z,21.75
2017-07-16T11:07:55.684Z,21.73
2017-07-16T11:09:11.475Z,21.78
2017-07-16T11:10:26.902Z,21.72
2017-07-16T11:11:42.353Z,21.83
2017-07-16T11:12:57.842Z,21.86
2017-07-16T11:14:13.626Z,21.86
2017-07-16T11:15:29.301Z,21.79
2017-07-16T11:16:44.760Z,22.01
2017-07-16T11:18:00.230Z,21.98
2017-07-16T11:19:16.142Z,22.03
2017-07-16T11:20:30.258Z,22.02
2017-07-16T11:21:44.300Z,22.03
2017-07-16T11:22:59.793Z,22.13
2017-07-16T11:24:15.563Z,22.06
2017-07-16T11:25:31.035Z,22.13
2017-07-16T11:26:45.196Z,22.13
2017-07-16T11:28:00.325Z,22.09
2017-07-16T11:29:16.059Z,22.06
2017-07-16T11:30:31.553Z,21.98
2017-07-16T11:31:47.005Z,21.98
2017-07-16T11:33:02.683Z,22.02
2017-07-16T11:34:18.416Z,22.06
2017-07-16T11:35:33.933Z,22.11
2017-07-16T11:36:49.367Z,22.18
2017-07-16T11:38:04.957Z,22.12
2017-07-16T11:39:20.853Z,22.05
2017-07-16T11:40:36.297Z,22.13
2017-07-16T11:41:51.809Z,22.08
2017-07-16T11:43:07.487Z,22.12
2017-07-16T11:44:23.251Z,22.05
2017-07-16T11:45:38.702Z,22.15
2017-07-16T11:46:54.198Z,22.06
2017-07-16T11:48:09.678Z,22.03
2017-07-16T11:49:25.439Z,22.02
2017-07-16T11:50:41.109Z,21.98
2017-07-16T11:51:56.789Z,22.02
2017-07-16T11:53:12.362Z,21.87
2017-07-16T11:54:28.078Z,21.94
2017-07-16T11:55:43.548Z,21.97
2017-07-16T11:56:59.225Z,21.87
2017-07-16T11:58:14.786Z,21.87
2017-07-16T11:59:30.480Z,21.83
2017-07-16T12:00:45.780Z,21.69
2017-07-16T12:02:01.319Z,21.78
2017-07-16T12:03:16.813Z,21.72
2017-07-16T12:04:32.833Z,21.87
2017-07-16T12:05:48.321Z,21.9
2017-07-16T12:07:03.824Z,22.05
2017-07-16T12:08:19.260Z,22.09
2017-07-16T12:09:33.707Z,22.12
2017-07-16T12:10:49.221Z,22.21
2017-07-16T12:12:04.716Z,22.24
2017-07-16T12:13:20.187Z,22.2
2017-07-16T12:14:36.013Z,22.18
2017-07-16T12:15:51.525Z,22.23
2017-07-16T12:17:07.010Z,22.2
2017-07-16T12:18:22.508Z,22.28
2017-07-16T12:19:38.293Z,22.28
2017-07-16T12:20:53.753Z,22.28
2017-07-16T12:22:09.254Z,22.35
2017-07-16T12:23:24.809Z,22.27
2017-07-16T12:24:40.540Z,22.21
2017-07-16T12:25:56.049Z,22.08
2017-07-16T12:27:11.906Z,22.02
2017-07-16T12:28:27.467Z,21.98
2017-07-16T12:29:43.143Z,21.86
2017-07-16T12:30:58.603Z,21.83
2017-07-16T12:32:14.147Z,21.73
2017-07-16T12:33:29.604Z,21.75
2017-07-16T12:34:45.554Z,21.72
2017-07-16T12:35:59.931Z,21.68
2017-07-16T12:37:15.443Z,21.54
2017-07-16T12:38:31.154Z,21.58
2017-07-16T12:39:46.906Z,21.38
2017-07-16T12:41:01.094Z,21.35
2017-07-16T12:42:16.555Z,21.31
2017-07-16T12:43:32.054Z,21.33
2017-07-16T12:44:48.184Z,21.25
2017-07-16T12:46:03.672Z,21.27
2017-07-16T12:47:19.156Z,21.18
2017-07-16T12:48:34.443Z,21.16
2017-07-16T12:49:50.189Z,21.27
2017-07-16T12:51:05.707Z,21.22
2017-07-16T12:52:21.167Z,21.23
2017-07-16T12:53:36.694Z,21.18
2017-07-16T12:54:52.422Z,21.16
2017-07-16T12:56:08.104Z,21.15
2017-07-16T12:57:23.743Z,21.12
2017-07-16T12:58:39.092Z,21.1
2017-07-16T12:59:54.915Z,21.06
2017-07-16T13:01:10.388Z,21.2
2017-07-16T13:02:26.012Z,21.2
2017-07-16T13:03:41.492Z,21.2
2017-07-16T13:05:10.739Z,21.18
2017-07-16T13:06:26.266Z,21.19
2017-07-16T13:07:40.077Z,21.22
2017-07-16T13:08:55.547Z,21.12
2017-07-16T13:10:11.253Z,21.18
2017-07-16T13:11:27.073Z,21.15
2017-07-16T13:12:42.743Z,21.18
2017-07-16T13:13:58.177Z,21.22
2017-07-16T13:15:14.077Z,21.19
2017-07-16T13:16:29.559Z,21.18
2017-07-16T13:17:45.259Z,21.25
2017-07-16T13:19:00.727Z,21.27
2017-07-16T13:20:16.632Z,21.34
2017-07-16T13:21:32.103Z,21.33
2017-07-16T13:22:46.296Z,21.35
2017-07-16T13:24:01.804Z,21.37
2017-07-16T13:25:17.526Z,21.43
2017-07-16T13:26:33.066Z,21.43
2017-07-16T13:27:48.570Z,21.49
2017-07-16T13:29:04.044Z,21.61
2017-07-16T13:30:19.773Z,21.61
2017-07-16T13:31:33.942Z,21.65
2017-07-16T13:32:49.558Z,21.65
2017-07-16T13:34:04.970Z,21.64
2017-07-16T13:35:20.751Z,21.61
2017-07-16T13:36:36.228Z,21.54
2017-07-16T13:37:51.717Z,21.54
2017-07-16T13:39:07.320Z,21.5
2017-07-16T13:40:23.133Z,21.41
2017-07-16T13:41:38.260Z,21.38
2017-07-16T13:42:53.353Z,21.35
2017-07-16T13:44:09.057Z,21.38
2017-07-16T13:45:24.818Z,21.31
2017-07-16T13:46:40.292Z,21.27
2017-07-16T13:47:55.966Z,21.23
2017-07-16T13:49:11.653Z,21.23
2017-07-16T13:50:27.398Z,21.27
2017-07-16T13:51:42.977Z,21.22
2017-07-16T13:52:58.515Z,21.2
2017-07-16T13:54:14.015Z,21.27
2017-07-16T13:55:29.786Z,21.19
2017-07-16T13:56:45.350Z,21.15
2017-07-16T13:58:00.857Z,21.27
2017-07-16T13:59:16.343Z,21.18
2017-07-16T14:00:32.112Z,21.12
2017-07-16T14:01:47.616Z,21.16
2017-07-16T14:03:03.155Z,21.01
2017-07-16T14:04:18.609Z,21.1
2017-07-16T14:05:34.397Z,21.04
2017-07-16T14:06:49.858Z,21.06
2017-07-16T14:08:05.318Z,21.04
2017-07-16T14:09:19.474Z,21
2017-07-16T14:10:35.378Z,20.91
2017-07-16T14:11:50.845Z,20.85
2017-07-16T14:13:06.325Z,20.85
2017-07-16T14:14:21.814Z,20.75
2017-07-16T14:15:37.653Z,20.81
2017-07-16T14:16:53.158Z,20.75
2017-07-16T14:18:08.631Z,20.73
2017-07-16T14:19:24.131Z,20.73
2017-07-16T14:22:09.161Z,20.64
2017-07-16T14:23:24.631Z,20.66
2017-07-16T14:24:40.125Z,20.67
2017-07-16T14:25:55.582Z,20.66
2017-07-16T14:27:11.278Z,20.64
2017-07-16T14:28:26.717Z,20.71
2017-07-16T14:30:13.037Z,20.66
2017-07-16T14:31:28.835Z,20.71
2017-07-16T14:32:44.325Z,20.68
2017-07-16T14:33:59.996Z,20.61
2017-07-16T14:35:15.137Z,20.58
2017-07-16T14:36:31.082Z,20.57
2017-07-16T14:37:46.486Z,20.46
2017-07-16T14:39:02.266Z,20.45
2017-07-16T14:40:17.743Z,20.46
2017-07-16T14:41:33.540Z,20.38
2017-07-16T14:42:49.060Z,20.39
2017-07-16T14:44:04.563Z,20.45
2017-07-16T14:45:20.028Z,20.39
2017-07-16T14:46:34.152Z,20.34
2017-07-16T14:47:49.611Z,20.38
2017-07-16T14:49:05.066Z,20.3
2017-07-16T14:50:19.237Z,20.27
2017-07-16T14:51:34.980Z,20.26
2017-07-16T14:52:50.574Z,20.21
2017-07-16T14:54:06.307Z,20.38
2017-07-16T14:55:21.773Z,20.39
2017-07-16T14:56:37.448Z,20.53
2017-07-16T14:57:53.014Z,20.53
2017-07-16T14:59:08.508Z,20.49
2017-07-16T15:00:23.935Z,20.63
2017-07-16T15:01:39.739Z,20.67
2017-07-16T15:02:55.248Z,20.72
2017-07-16T15:04:10.766Z,20.78
2017-07-16T15:05:26.257Z,20.78
2017-07-16T15:06:42.012Z,20.83
2017-07-16T15:07:57.500Z,20.75
2017-07-16T15:09:13.159Z,20.85
2017-07-16T15:10:28.663Z,20.85
2017-07-16T15:11:44.407Z,20.82
2017-07-16T15:12:59.887Z,20.86
2017-07-16T15:14:15.397Z,20.81
2017-07-16T15:15:30.868Z,20.86
2017-07-16T15:16:46.655Z,20.83
2017-07-16T15:18:02.121Z,20.85
2017-07-16T15:19:17.686Z,20.81
2017-07-16T15:20:33.213Z,20.73
2017-07-16T15:21:49.124Z,20.67
2017-07-16T15:23:04.656Z,20.75
2017-07-16T15:24:20.109Z,20.68
2017-07-16T15:25:35.561Z,20.67
2017-07-16T15:26:51.313Z,20.72
2017-07-16T15:28:06.791Z,20.64
2017-07-16T15:29:20.819Z,20.58
2017-07-16T15:30:36.259Z,20.63
2017-07-16T15:32:05.558Z,20.64
2017-07-16T15:33:18.258Z,20.6
2017-07-16T15:34:33.792Z,20.6
2017-07-16T15:35:49.266Z,20.6
2017-07-16T15:37:05.006Z,20.48
2017-07-16T15:38:20.535Z,20.57
2017-07-16T15:39:36.031Z,20.49
2017-07-16T15:40:51.519Z,20.54
2017-07-16T15:42:07.297Z,20.51
2017-07-16T15:43:22.877Z,20.53
2017-07-16T15:44:38.292Z,20.46
2017-07-16T15:45:53.763Z,20.49
2017-07-16T15:47:09.570Z,20.49
2017-07-16T15:48:25.193Z,20.42
2017-07-16T15:49:40.728Z,20.42
2017-07-16T15:50:56.179Z,20.27
2017-07-16T15:52:11.938Z,20.28
2017-07-16T15:53:27.442Z,20.17
2017-07-16T15:54:43.036Z,20.11
2017-07-16T15:55:58.486Z,20.05
2017-07-16T15:57:14.140Z,20.05
2017-07-16T15:58:29.649Z,19.97
2017-07-16T15:59:45.601Z,19.97
2017-07-16T16:01:01.094Z,20.01
2017-07-16T16:02:16.861Z,19.9
2017-07-16T16:04:03.054Z,19.86
2017-07-16T16:05:18.516Z,19.82
2017-07-16T16:06:33.976Z,19.8
2017-07-16T16:07:49.879Z,19.82
2017-07-16T16:09:05.313Z,19.83
2017-07-16T16:10:21.299Z,19.85
2017-07-16T16:11:35.432Z,19.76
2017-07-16T16:12:50.795Z,19.74
2017-07-16T16:14:05.921Z,19.82
2017-07-16T16:15:21.642Z,19.74
2017-07-16T16:16:37.113Z,19.76
2017-07-16T16:17:52.876Z,19.64
2017-07-16T16:19:08.369Z,19.7
2017-07-16T16:20:23.877Z,19.71